Time;durP1;ratioP1;P1;durP2;ratioP2;P2;SDS_P1;SDS_P2;PMS_P1;PMS_P2;Temp;Humidity;BMP_temperature;BMP_pressure;BME280_temperature;BME280_humidity;BME280_pressure;Samples;Min_cycle;Max_cycle;Signal;HPM_P1;HPM_P2
2021/12/27 00:01:51;;;;;;;;;;;-7.40;99.90;;;;;;5104286;28;19931;-80
2021/12/27 00:04:17;;;;;;;;;;;-7.40;99.90;;;;;;5066361;28;19929;-79
2021/12/27 00:06:44;;;;;;;;;;;-7.40;99.90;;;;;;5036479;28;19930;-83
2021/12/27 00:09:14;;;;;;;;;;;-7.40;99.90;;;;;;4890966;28;19952;-81
2021/12/27 00:11:41;;;;;;;;;;;-7.40;99.90;;;;;;4609170;30;19941;-79
2021/12/27 00:19:18;;;;;;;;;;;-7.40;99.90;;;;;;5172768;27;19926;-80
2021/12/27 00:21:45;;;;;;;;;;;-7.40;99.90;;;;;;5097480;28;19924;-82
2021/12/27 00:24:11;;;;;;;;;;;-7.30;99.90;;;;;;5038095;28;19925;-81
2021/12/27 00:26:38;;;;;;;;;;;-7.40;99.90;;;;;;5029019;28;19932;-81
2021/12/27 00:29:05;;;;;;;;;;;-7.30;99.90;;;;;;4879246;29;19939;-80
2021/12/27 00:31:33;;;;;;;;;;;-7.30;99.90;;;;;;4743409;29;19954;-80
2021/12/27 00:34:02;;;;;;;;;;;-7.30;99.90;;;;;;4629946;30;19934;-83
2021/12/27 00:41:28;;;;;;;;;;;-7.30;99.90;;;;;;5166630;27;19926;-80
2021/12/27 00:43:54;;;;;;;;;;;-7.40;99.90;;;;;;5110082;27;19924;-83
2021/12/27 00:46:21;;;;;;;;;;;-7.40;99.90;;;;;;5115405;27;19946;-80
2021/12/27 00:48:47;;;;;;;;;;;-7.40;99.90;;;;;;5077178;28;19936;-80
2021/12/27 00:51:14;;;;;;;;;;;-7.30;99.90;;;;;;4960217;28;19932;-81
2021/12/27 00:53:41;;;;;;;;;;;-7.30;99.90;;;;;;4731166;29;19933;-82
2021/12/27 00:56:07;;;;;;;;;;;-7.30;99.90;;;;;;4455381;31;19945;-80
2021/12/27 01:03:40;;;;;;;;;;;-7.30;99.90;;;;;;5173247;27;19925;-80
2021/12/27 01:06:06;;;;;;;;;;;-7.20;99.90;;;;;;5136888;27;19995;-79
2021/12/27 01:08:33;;;;;;;;;;;-7.20;99.90;;;;;;5136439;27;19945;-79
2021/12/27 01:11:21;;;;;;;;;;;-7.30;99.90;;;;;;5123862;28;19931;-78
2021/12/27 01:14:01;;;;;;;;;;;-7.20;99.90;;;;;;5037182;28;19972;-78
2021/12/27 01:16:28;;;;;;;;;;;-7.30;99.90;;;;;;4893635;28;19939;-78
2021/12/27 01:18:55;;;;;;;;;;;-7.30;99.90;;;;;;4625951;30;19941;-78
2021/12/27 01:26:31;;;;;;;;;;;-7.20;99.90;;;;;;5177160;27;19941;-81
2021/12/27 01:28:59;;;;;;;;;;;-7.20;99.90;;;;;;5136739;27;19923;-81
2021/12/27 01:31:26;;;;;;;;;;;-7.20;99.90;;;;;;5122485;28;19924;-81
2021/12/27 01:33:53;;;;;;;;;;;-7.20;99.90;;;;;;5069266;28;19924;-80
2021/12/27 01:36:20;;;;;;;;;;;-7.20;99.90;;;;;;4954627;28;19932;-81
2021/12/27 01:38:49;;;;;;;;;;;-7.20;99.90;;;;;;4764119;29;19934;-78
2021/12/27 01:41:16;;;;;;;;;;;-7.20;99.90;;;;;;4495392;30;19945;-79
2021/12/27 01:48:13;;;;;;;;;;;-7.20;99.90;;;;;;5169961;27;19925;-80
2021/12/27 01:50:41;;;;;;;;;;;-7.20;99.90;;;;;;5138192;27;19928;-79
2021/12/27 01:53:08;;;;;;;;;;;-7.10;99.90;;;;;;5105940;28;19928;-79
2021/12/27 01:55:35;;;;;;;;;;;-7.20;99.90;;;;;;5103716;28;19932;-78
2021/12/27 01:58:04;;;;;;;;;;;-7.20;99.90;;;;;;5003043;28;19938;-78
2021/12/27 02:00:31;;;;;;;;;;;-7.20;99.90;;;;;;4872161;28;19937;-79
2021/12/27 02:02:58;;;;;;;;;;;-7.10;99.90;;;;;;4519410;30;19938;-79
2021/12/27 02:10:25;;;;;;;;;;;-7.10;99.90;;;;;;5146341;27;19926;-79
2021/12/27 02:12:51;;;;;;;;;;;-7.10;99.90;;;;;;5117319;27;19934;-78
2021/12/27 02:15:18;;;;;;;;;;;-7.10;99.90;;;;;;5095683;27;19931;-80
2021/12/27 02:17:44;;;;;;;;;;;-7.10;99.90;;;;;;5065912;28;19933;-78
2021/12/27 02:20:15;;;;;;;;;;;-7.10;99.90;;;;;;4953915;28;19933;-81
2021/12/27 02:22:43;;;;;;;;;;;-7.00;99.90;;;;;;4790573;29;19936;-79
2021/12/27 02:25:10;;;;;;;;;;;-7.10;99.90;;;;;;4594267;30;19935;-79
2021/12/27 02:30:23;;;;;;;;;;;-7.00;99.90;;;;;;5147184;27;19929;-78
2021/12/27 02:32:53;;;;;;;;;;;-7.00;99.90;;;;;;5095911;28;19924;-79
2021/12/27 02:35:21;;;;;;;;;;;-7.00;99.90;;;;;;5090565;27;19930;-81
2021/12/27 02:37:48;;;;;;;;;;;-7.00;99.90;;;;;;5073216;28;19925;-79
2021/12/27 02:40:15;;;;;;;;;;;-6.90;99.90;;;;;;4990652;28;19930;-78
2021/12/27 02:42:56;;;;;;;;;;;-6.90;99.90;;;;;;4830304;29;19948;-78
2021/12/27 02:45:24;;;;;;;;;;;-6.90;99.90;;;;;;4524985;30;19937;-80
2021/12/27 02:52:50;;;;;;;;;;;-6.80;99.90;;;;;;5143027;27;19929;-80
2021/12/27 02:55:17;;;;;;;;;;;-6.80;99.90;;;;;;5090382;27;19928;-80
2021/12/27 02:57:44;;;;;;;;;;;-6.70;99.90;;;;;;5071459;28;19938;-80
2021/12/27 03:00:12;;;;;;;;;;;-6.70;99.90;;;;;;5060520;28;19936;-78
2021/12/27 03:02:40;;;;;;;;;;;-6.70;99.90;;;;;;4987728;28;19934;-79
2021/12/27 03:05:07;;;;;;;;;;;-6.70;99.90;;;;;;4800566;29;19938;-80
2021/12/27 03:07:33;;;;;;;;;;;-6.60;99.90;;;;;;4645870;30;19935;-79
2021/12/27 03:15:15;;;;;;;;;;;-6.50;99.90;;;;;;5156870;27;19926;-81
2021/12/27 03:17:44;;;;;;;;;;;-6.50;99.90;;;;;;5114219;27;19931;-81
2021/12/27 03:20:11;;;;;;;;;;;-6.50;99.90;;;;;;5058998;28;19928;-79
2021/12/27 03:22:40;;;;;;;;;;;-6.50;99.90;;;;;;4990571;28;19938;-80
2021/12/27 03:25:08;;;;;;;;;;;-6.50;99.90;;;;;;4879774;28;19941;-79
2021/12/27 03:27:34;;;;;;;;;;;-6.50;99.90;;;;;;4730535;30;19932;-77
2021/12/27 03:30:01;;;;;;;;;;;-6.60;99.90;;;;;;4588463;30;19964;-79
2021/12/27 03:37:33;;;;;;;;;;;-6.50;99.90;;;;;;5151493;27;19930;-78
2021/12/27 03:40:00;;;;;;;;;;;-6.50;99.90;;;;;;5113044;27;19927;-80
2021/12/27 03:42:27;;;;;;;;;;;-6.50;99.90;;;;;;5096817;28;19943;-80
2021/12/27 03:44:53;;;;;;;;;;;-6.50;99.90;;;;;;5071921;28;19936;-80
2021/12/27 03:47:20;;;;;;;;;;;-6.50;99.90;;;;;;4962201;28;19929;-81
2021/12/27 03:49:46;;;;;;;;;;;-6.50;99.90;;;;;;4743777;29;19932;-80
2021/12/27 03:52:13;;;;;;;;;;;-6.50;99.90;;;;;;4487244;30;19945;-80
2021/12/27 03:59:53;;;;;;;;;;;-6.40;99.90;;;;;;5153501;27;19926;-81
2021/12/27 04:02:20;;;;;;;;;;;-6.40;99.90;;;;;;5098116;27;19923;-82
2021/12/27 04:05:08;;;;;;;;;;;-6.40;99.90;;;;;;5103678;27;19928;-82
2021/12/27 04:08:00;;;;;;;;;;;-6.40;99.90;;;;;;5076370;28;19932;-82
2021/12/27 04:10:45;;;;;;;;;;;-6.40;99.90;;;;;;4979431;28;19926;-80
2021/12/27 04:13:30;;;;;;;;;;;-6.40;99.90;;;;;;4717345;30;20102;-79
2021/12/27 04:18:58;;;;;;;;;;;-6.40;99.90;;;;;;5164772;27;19926;-81
2021/12/27 04:21:25;;;;;;;;;;;-6.40;99.90;;;;;;5100837;28;19924;-78
2021/12/27 04:23:51;;;;;;;;;;;-6.40;99.90;;;;;;5105607;28;20239;-82
2021/12/27 04:26:19;;;;;;;;;;;-6.30;99.90;;;;;;5077147;28;19924;-82
2021/12/27 04:28:46;;;;;;;;;;;-6.30;99.90;;;;;;5005748;28;19927;-77
2021/12/27 04:31:14;;;;;;;;;;;-6.30;99.90;;;;;;4791615;29;19930;-80
2021/12/27 04:33:41;;;;;;;;;;;-6.30;99.90;;;;;;4569774;30;19949;-78
2021/12/27 04:41:12;;;;;;;;;;;-6.20;99.90;;;;;;5153478;27;19926;-80
2021/12/27 04:43:39;;;;;;;;;;;-6.20;99.90;;;;;;5089611;28;19924;-81
2021/12/27 04:46:06;;;;;;;;;;;-6.20;99.90;;;;;;5057383;28;19928;-80
2021/12/27 04:48:32;;;;;;;;;;;-6.10;99.90;;;;;;5018794;28;19941;-80
2021/12/27 04:50:59;;;;;;;;;;;-6.10;99.90;;;;;;4923550;29;19928;-81
2021/12/27 04:53:26;;;;;;;;;;;-6.00;99.90;;;;;;4774081;29;19931;-81
2021/12/27 04:55:52;;;;;;;;;;;-6.10;99.90;;;;;;4559979;30;19951;-80
2021/12/27 05:02:23;;;;;;;;;;;-6.10;99.90;;;;;;5133972;27;19926;-81
2021/12/27 05:04:50;;;;;;;;;;;-6.00;99.90;;;;;;5102355;27;19924;-79
2021/12/27 05:07:16;;;;;;;;;;;-6.00;99.90;;;;;;5086232;28;19940;-80
2021/12/27 05:09:44;;;;;;;;;;;-6.00;99.90;;;;;;5023388;28;19930;-81
2021/12/27 05:12:10;;;;;;;;;;;-6.00;99.90;;;;;;4966027;28;19931;-82
2021/12/27 05:14:37;;;;;;;;;;;-6.00;99.90;;;;;;4834290;29;19939;-80
2021/12/27 05:17:04;;;;;;;;;;;-6.00;99.90;;;;;;4603552;30;19939;-79
2021/12/27 05:24:36;;;;;;;;;;;-5.90;99.90;;;;;;5152436;27;19926;-81
2021/12/27 05:27:03;;;;;;;;;;;-5.90;99.90;;;;;;5109947;28;19924;-80
2021/12/27 05:29:30;;;;;;;;;;;-5.90;99.90;;;;;;5059731;28;19951;-79
2021/12/27 05:32:01;;;;;;;;;;;-5.80;99.90;;;;;;4996572;28;19927;-78
2021/12/27 05:34:28;;;;;;;;;;;-5.80;99.90;;;;;;4929823;28;19983;-80
2021/12/27 05:36:54;;;;;;;;;;;-5.70;99.90;;;;;;4757311;29;19932;-78
2021/12/27 05:39:22;;;;;;;;;;;-5.60;99.90;;;;;;4529246;31;19946;-79
2021/12/27 05:46:54;;;;;;;;;;;-5.60;99.90;;;;;;5152412;27;20516;-78
2021/12/27 05:49:21;;;;;;;;;;;-5.50;99.90;;;;;;5085500;28;19928;-79
2021/12/27 05:51:47;;;;;;;;;;;-5.50;99.90;;;;;;5074077;28;19943;-81
2021/12/27 05:54:14;;;;;;;;;;;-5.50;99.90;;;;;;5063333;28;19948;-81
2021/12/27 05:56:41;;;;;;;;;;;-5.50;99.90;;;;;;5055979;28;19926;-79
2021/12/27 05:59:07;;;;;;;;;;;-5.50;99.90;;;;;;4926101;28;19929;-80
2021/12/27 06:01:34;;;;;;;;;;;-5.50;99.90;;;;;;4645989;29;19961;-81
2021/12/27 06:09:05;;;;;;;;;;;-5.40;99.90;;;;;;5150307;27;19929;-81
2021/12/27 06:11:32;;;;;;;;;;;-5.30;99.90;;;;;;5104087;27;19935;-81
2021/12/27 06:13:59;;;;;;;;;;;-5.30;99.90;;;;;;5072079;28;19932;-79
2021/12/27 06:16:25;;;;;;;;;;;-5.30;99.90;;;;;;5070774;28;19925;-81
2021/12/27 06:18:52;;;;;;;;;;;-5.30;99.90;;;;;;4989204;28;19937;-80
2021/12/27 06:21:18;;;;;;;;;;;-5.30;99.90;;;;;;4809786;29;19934;-80
2021/12/27 06:23:46;;;;;;;;;;;-5.20;99.90;;;;;;4622748;30;20021;-78
2021/12/27 06:31:18;;;;;;;;;;;-5.20;99.90;;;;;;5150651;27;19927;-81
2021/12/27 06:33:44;;;;;;;;;;;-5.20;99.90;;;;;;5091037;27;19924;-78
2021/12/27 06:36:11;;;;;;;;;;;-5.20;99.90;;;;;;5067888;28;21441;-82
2021/12/27 06:38:38;;;;;;;;;;;-5.20;99.90;;;;;;5059819;28;19952;-80
2021/12/27 06:41:04;;;;;;;;;;;-5.20;99.90;;;;;;4911074;28;19939;-80
2021/12/27 06:43:31;;;;;;;;;;;-5.20;99.90;;;;;;4827459;29;19930;-79
2021/12/27 06:45:58;;;;;;;;;;;-5.20;99.90;;;;;;4715637;29;19945;-80
2021/12/27 06:53:33;;;;;;;;;;;-5.10;99.90;;;;;;5149386;27;19926;-79
2021/12/27 06:55:59;;;;;;;;;;;-5.10;99.90;;;;;;5078901;28;19935;-79
2021/12/27 06:58:26;;;;;;;;;;;-5.10;99.90;;;;;;5070961;28;19939;-80
2021/12/27 07:00:52;;;;;;;;;;;-5.00;99.90;;;;;;5037610;28;19941;-80
2021/12/27 07:03:19;;;;;;;;;;;-5.00;99.90;;;;;;4902370;28;19938;-79
2021/12/27 07:05:46;;;;;;;;;;;-5.00;99.90;;;;;;4718680;29;19941;-81
2021/12/27 07:08:12;;;;;;;;;;;-4.90;99.90;;;;;;4465603;31;19938;-82
2021/12/27 07:15:45;;;;;;;;;;;-4.90;99.90;;;;;;5151855;27;19925;-81
2021/12/27 07:18:12;;;;;;;;;;;-4.90;99.90;;;;;;5109008;27;19927;-79
2021/12/27 07:20:39;;;;;;;;;;;-4.80;99.90;;;;;;5078561;28;19947;-80
2021/12/27 07:23:07;;;;;;;;;;;-4.80;99.90;;;;;;5002511;28;19930;-80
2021/12/27 07:25:35;;;;;;;;;;;-4.70;99.90;;;;;;4956889;28;19927;-81
2021/12/27 07:28:01;;;;;;;;;;;-4.70;99.90;;;;;;4787471;29;19943;-82
2021/12/27 07:30:29;;;;;;;;;;;-4.70;99.90;;;;;;4560543;30;19944;-80
2021/12/27 07:38:00;;;;;;;;;;;-4.60;99.90;;;;;;5146556;27;19926;-79
2021/12/27 07:40:27;;;;;;;;;;;-4.60;99.90;;;;;;5091118;28;19932;-79
2021/12/27 07:42:53;;;;;;;;;;;-4.60;99.90;;;;;;5077863;28;19939;-82
2021/12/27 07:45:20;;;;;;;;;;;-4.70;99.90;;;;;;5032035;28;19924;-79
2021/12/27 07:47:46;;;;;;;;;;;-4.60;99.90;;;;;;4964555;28;20009;-78
2021/12/27 07:50:13;;;;;;;;;;;-4.60;99.90;;;;;;4784529;29;19946;-80
2021/12/27 07:52:40;;;;;;;;;;;-4.60;99.90;;;;;;4526283;30;19951;-80
2021/12/27 08:00:12;;;;;;;;;;;-4.50;99.90;;;;;;5153165;27;19929;-79
2021/12/27 08:02:39;;;;;;;;;;;-4.50;99.90;;;;;;5117647;27;19931;-80
2021/12/27 08:05:06;;;;;;;;;;;-4.50;99.90;;;;;;5106547;28;19928;-81
2021/12/27 08:07:33;;;;;;;;;;;-4.50;99.90;;;;;;5078252;28;19929;-79
2021/12/27 08:10:00;;;;;;;;;;;-4.40;99.90;;;;;;4983890;28;19927;-79
2021/12/27 08:12:26;;;;;;;;;;;-4.50;99.90;;;;;;4774624;29;19941;-80
2021/12/27 08:14:53;;;;;;;;;;;-4.40;99.90;;;;;;4596074;30;19938;-81
2021/12/27 08:22:30;;;;;;;;;;;-4.30;99.90;;;;;;5143206;27;19926;-83
2021/12/27 08:24:56;;;;;;;;;;;-4.30;99.90;;;;;;5099205;28;19928;-82
2021/12/27 08:27:24;;;;;;;;;;;-4.30;99.90;;;;;;5098480;28;19940;-83
2021/12/27 08:29:50;;;;;;;;;;;-4.20;99.90;;;;;;5067756;28;19929;-81
2021/12/27 08:32:17;;;;;;;;;;;-4.10;99.90;;;;;;4929255;28;19935;-82
2021/12/27 08:34:44;;;;;;;;;;;-4.10;99.90;;;;;;4719530;29;19933;-82
2021/12/27 08:37:11;;;;;;;;;;;-4.10;99.90;;;;;;4382789;31;19944;-83
2021/12/27 08:42:16;;;;;;;;;;;-4.00;99.90;;;;;;5138426;27;19930;-81
2021/12/27 08:44:43;;;;;;;;;;;-4.00;99.90;;;;;;5073047;28;19935;-81
2021/12/27 08:47:12;;;;;;;;;;;-4.00;99.90;;;;;;5043605;28;19933;-82
2021/12/27 08:49:39;;;;;;;;;;;-4.00;99.90;;;;;;5048171;28;19935;-81
2021/12/27 08:52:05;;;;;;;;;;;-3.90;99.90;;;;;;4978027;28;19930;-82
2021/12/27 08:54:34;;;;;;;;;;;-3.90;99.90;;;;;;4807714;29;19931;-82
2021/12/27 08:57:03;;;;;;;;;;;-3.80;99.90;;;;;;4421055;31;19951;-80
2021/12/27 09:05:55;;;;;;;;;;;-3.70;99.90;;;;;;5173864;27;19930;-79
2021/12/27 09:08:22;;;;;;;;;;;-3.60;99.90;;;;;;5137078;27;19919;-80
2021/12/27 09:10:49;;;;;;;;;;;-3.50;99.90;;;;;;5131701;27;19932;-79
2021/12/27 09:13:16;;;;;;;;;;;-3.40;99.90;;;;;;5063862;28;19924;-80
2021/12/27 09:15:42;;;;;;;;;;;-3.30;99.90;;;;;;4976860;28;19934;-82
2021/12/27 09:18:09;;;;;;;;;;;-3.30;99.90;;;;;;4787705;29;19955;-84
2021/12/27 09:20:38;;;;;;;;;;;-3.30;99.90;;;;;;4573605;30;19935;-82
2021/12/27 09:28:07;;;;;;;;;;;-3.10;99.90;;;;;;5150533;27;19926;-81
2021/12/27 09:30:34;;;;;;;;;;;-3.10;99.90;;;;;;5109948;27;19931;-82
2021/12/27 09:33:01;;;;;;;;;;;-3.00;99.90;;;;;;5061377;28;19932;-82
2021/12/27 09:35:28;;;;;;;;;;;-2.90;99.90;;;;;;5021857;28;19926;-83
2021/12/27 09:37:54;;;;;;;;;;;-3.00;99.90;;;;;;4953433;28;19935;-83
2021/12/27 09:40:21;;;;;;;;;;;-3.00;99.90;;;;;;4753279;29;19947;-82
2021/12/27 09:42:48;;;;;;;;;;;-3.10;99.90;;;;;;4426101;31;20051;-82
2021/12/27 09:50:07;;;;;;;;;;;-2.90;99.90;;;;;;5146746;27;19927;-80
2021/12/27 09:52:36;;;;;;;;;;;-2.90;99.90;;;;;;5094585;27;19924;-81
2021/12/27 09:55:04;;;;;;;;;;;-3.00;99.90;;;;;;5075695;28;19924;-81
2021/12/27 09:57:30;;;;;;;;;;;-3.10;99.90;;;;;;5069123;28;19936;-81
2021/12/27 09:59:59;;;;;;;;;;;-3.00;99.90;;;;;;4956908;28;19928;-81
2021/12/27 10:02:27;;;;;;;;;;;-2.90;99.90;;;;;;4717806;29;19944;-81
2021/12/27 10:04:55;;;;;;;;;;;-2.90;99.90;;;;;;4456513;31;19944;-81
2021/12/27 10:11:37;;;;;;;;;;;-2.80;99.90;;;;;;5154492;27;19926;-79
2021/12/27 10:14:05;;;;;;;;;;;-2.70;99.90;;;;;;5116652;27;19928;-81
2021/12/27 10:16:33;;;;;;;;;;;-2.70;99.90;;;;;;5099934;28;19928;-80
2021/12/27 10:19:01;;;;;;;;;;;-2.60;99.90;;;;;;5049846;28;19932;-81
2021/12/27 10:21:28;;;;;;;;;;;-2.60;99.90;;;;;;4945494;28;20099;-81
2021/12/27 10:24:02;;;;;;;;;;;-2.70;99.90;;;;;;4686438;29;19938;-82
2021/12/27 10:26:29;;;;;;;;;;;-2.60;99.90;;;;;;4390657;31;19948;-81
2021/12/27 10:33:49;;;;;;;;;;;-2.50;99.90;;;;;;5143465;27;19927;-80
2021/12/27 10:36:16;;;;;;;;;;;-2.20;99.90;;;;;;5104103;27;19928;-81
2021/12/27 10:38:53;;;;;;;;;;;-2.00;99.90;;;;;;5080123;27;19939;-80
2021/12/27 10:41:19;;;;;;;;;;;-1.70;99.90;;;;;;5040102;28;19925;-82
2021/12/27 10:43:47;;;;;;;;;;;-1.10;99.90;;;;;;4943606;28;19927;-83
2021/12/27 10:46:15;;;;;;;;;;;-0.50;99.90;;;;;;4748643;29;19936;-81
2021/12/27 10:48:42;;;;;;;;;;;0.50;99.90;;;;;;4449687;31;19942;-82
2021/12/27 10:56:10;;;;;;;;;;;1.80;99.90;;;;;;5144229;27;19930;-82
2021/12/27 10:58:38;;;;;;;;;;;1.00;99.90;;;;;;5090571;27;19924;-81
2021/12/27 11:01:07;;;;;;;;;;;0.40;99.90;;;;;;5099433;28;19924;-81
2021/12/27 11:03:36;;;;;;;;;;;0.00;99.90;;;;;;5065326;28;19924;-82
2021/12/27 11:06:04;;;;;;;;;;;-0.30;99.90;;;;;;4954936;28;20844;-82
2021/12/27 11:08:31;;;;;;;;;;;-0.60;99.90;;;;;;4751644;29;19935;-81
2021/12/27 11:10:58;;;;;;;;;;;-0.60;99.90;;;;;;4461549;30;19938;-80
2021/12/27 11:18:30;;;;;;;;;;;-1.10;99.90;;;;;;5143596;27;19927;-80
2021/12/27 11:20:57;;;;;;;;;;;-1.00;99.90;;;;;;5097897;27;19924;-80
2021/12/27 11:23:25;;;;;;;;;;;-1.00;99.90;;;;;;5114816;27;19927;-81
2021/12/27 11:25:59;;;;;;;;;;;-1.00;99.90;;;;;;5064804;28;19938;-82
2021/12/27 11:28:27;;;;;;;;;;;-0.90;99.90;;;;;;4945453;28;19929;-81
2021/12/27 11:30:54;;;;;;;;;;;-0.80;99.90;;;;;;4786001;29;19940;-80
2021/12/27 11:33:22;;;;;;;;;;;-0.70;99.90;;;;;;4531021;30;19925;-82
2021/12/27 11:41:06;;;;;;;;;;;-0.70;99.90;;;;;;5158990;27;19946;-84
2021/12/27 11:43:50;;;;;;;;;;;-0.60;99.90;;;;;;5127990;28;19916;-81
2021/12/27 11:46:17;;;;;;;;;;;-0.60;99.90;;;;;;5053314;28;19921;-82
2021/12/27 11:48:44;;;;;;;;;;;-0.50;99.90;;;;;;4977920;28;19958;-82
2021/12/27 11:51:11;;;;;;;;;;;-0.40;99.90;;;;;;4882154;29;19931;-82
2021/12/27 11:53:43;;;;;;;;;;;-0.60;99.90;;;;;;4752287;29;19935;-81
2021/12/27 11:56:11;;;;;;;;;;;-0.60;99.90;;;;;;4427287;31;19939;-81
2021/12/27 12:02:50;;;;;;;;;;;-0.60;99.90;;;;;;5122332;27;19927;-81
2021/12/27 12:05:32;;;;;;;;;;;-0.60;99.90;;;;;;5053946;28;19941;-81
2021/12/27 12:07:58;;;;;;;;;;;-0.60;99.90;;;;;;5050257;28;19931;-80
2021/12/27 12:10:26;;;;;;;;;;;-0.50;99.90;;;;;;5041735;28;21486;-80
2021/12/27 12:13:20;;;;;;;;;;;-0.40;99.90;;;;;;4945060;28;19928;-82
2021/12/27 12:15:57;;;;;;;;;;;-0.30;99.90;;;;;;4675539;30;19932;-78
2021/12/27 12:22:34;;;;;;;;;;;-0.40;99.90;;;;;;5150811;27;19926;-81
2021/12/27 12:25:13;;;;;;;;;;;-0.30;99.90;;;;;;5062720;28;19925;-79
2021/12/27 12:27:56;;;;;;;;;;;-0.40;99.90;;;;;;5039583;28;19932;-81
2021/12/27 12:30:25;;;;;;;;;;;-0.30;99.90;;;;;;4974485;28;19926;-81
2021/12/27 12:33:01;;;;;;;;;;;-0.40;99.90;;;;;;4844790;29;19934;-80
2021/12/27 12:35:35;;;;;;;;;;;-0.40;99.90;;;;;;4638565;30;19937;-81
2021/12/27 12:38:16;;;;;;;;;;;-0.40;99.90;;;;;;4386678;32;19952;-80
2021/12/27 12:44:59;;;;;;;;;;;-0.60;99.90;;;;;;5153008;27;19934;-81
2021/12/27 12:47:27;;;;;;;;;;;-0.50;99.90;;;;;;5100872;28;19935;-81
2021/12/27 12:49:54;;;;;;;;;;;-0.40;99.90;;;;;;5050219;28;19925;-81
2021/12/27 12:52:21;;;;;;;;;;;-0.40;99.90;;;;;;5014477;28;19932;-81
2021/12/27 12:54:48;;;;;;;;;;;-0.40;99.90;;;;;;4861178;29;19930;-81
2021/12/27 12:57:19;;;;;;;;;;;-0.40;99.90;;;;;;4712612;30;19936;-81
2021/12/27 12:59:48;;;;;;;;;;;-0.50;99.90;;;;;;4495304;30;19952;-81
2021/12/27 13:04:57;;;;;;;;;;;-0.60;99.90;;;;;;5155460;27;19930;-80
2021/12/27 13:07:39;;;;;;;;;;;-0.50;99.90;;;;;;5108263;27;19924;-79
2021/12/27 13:10:06;;;;;;;;;;;-0.50;99.90;;;;;;5068138;28;19925;-80
2021/12/27 13:12:33;;;;;;;;;;;-0.50;99.90;;;;;;4976953;28;19954;-80
2021/12/27 13:15:08;;;;;;;;;;;-0.50;99.90;;;;;;4891546;29;19928;-81
2021/12/27 13:17:37;;;;;;;;;;;-0.60;99.90;;;;;;4734278;29;19938;-82
2021/12/27 13:20:06;;;;;;;;;;;-0.50;99.90;;;;;;4480547;30;19945;-82
2021/12/27 13:27:41;;;;;;;;;;;-0.60;99.90;;;;;;5154372;27;19934;-80
2021/12/27 13:30:10;;;;;;;;;;;-0.70;99.90;;;;;;5120432;27;19931;-80
2021/12/27 13:32:38;;;;;;;;;;;-0.70;99.90;;;;;;5083955;28;19924;-80
2021/12/27 13:35:04;;;;;;;;;;;-0.60;99.90;;;;;;5018066;28;19933;-80
2021/12/27 13:37:34;;;;;;;;;;;-0.70;99.90;;;;;;4922213;28;19933;-83
2021/12/27 13:40:08;;;;;;;;;;;-0.70;99.90;;;;;;4672013;30;19934;-81
2021/12/27 13:42:35;;;;;;;;;;;-0.60;99.90;;;;;;4374884;31;19955;-82
2021/12/27 13:50:08;;;;;;;;;;;-0.70;99.90;;;;;;5157688;27;19925;-81
2021/12/27 13:52:42;;;;;;;;;;;-0.80;99.90;;;;;;5137922;27;19923;-80
2021/12/27 13:55:19;;;;;;;;;;;-0.70;99.90;;;;;;5112665;28;19920;-80
2021/12/27 13:57:46;;;;;;;;;;;-0.70;99.90;;;;;;5045821;28;19935;-81
2021/12/27 14:00:14;;;;;;;;;;;-0.70;99.90;;;;;;4927325;28;19928;-80
2021/12/27 14:02:44;;;;;;;;;;;-0.70;99.90;;;;;;4758161;29;19936;-80
2021/12/27 14:05:12;;;;;;;;;;;-0.70;99.90;;;;;;4427039;31;19950;-82
2021/12/27 14:12:55;;;;;;;;;;;-0.70;99.90;;;;;;5143344;27;19930;-81
2021/12/27 14:15:27;;;;;;;;;;;-0.70;99.90;;;;;;5096159;28;19928;-80
2021/12/27 14:17:54;;;;;;;;;;;-0.70;99.90;;;;;;5056501;28;19933;-82
2021/12/27 14:20:20;;;;;;;;;;;-0.80;99.90;;;;;;5042821;28;19932;-81
2021/12/27 14:22:49;;;;;;;;;;;-0.80;99.90;;;;;;4908277;28;19940;-81
2021/12/27 14:25:16;;;;;;;;;;;-0.80;99.90;;;;;;4666631;29;19934;-80
2021/12/27 14:27:44;;;;;;;;;;;-0.90;99.90;;;;;;4348782;31;19942;-80
2021/12/27 14:35:16;;;;;;;;;;;-1.00;99.90;;;;;;5151733;27;19931;-81
2021/12/27 14:37:43;;;;;;;;;;;-1.00;99.90;;;;;;5076917;28;19924;-80
2021/12/27 14:40:10;;;;;;;;;;;-1.00;99.90;;;;;;5075345;28;19925;-81
2021/12/27 14:42:36;;;;;;;;;;;-1.00;99.90;;;;;;5027488;28;19940;-83
2021/12/27 14:45:04;;;;;;;;;;;-1.10;99.90;;;;;;4949589;28;19951;-81
2021/12/27 14:47:31;;;;;;;;;;;-1.10;99.90;;;;;;4766205;29;19932;-81
2021/12/27 14:49:57;;;;;;;;;;;-1.10;99.90;;;;;;4409508;31;19940;-81
2021/12/27 14:56:40;;;;;;;;;;;-1.20;99.90;;;;;;5149860;27;19931;-81
2021/12/27 14:59:07;;;;;;;;;;;-1.20;99.90;;;;;;5100087;27;19927;-80
2021/12/27 15:01:33;;;;;;;;;;;-1.30;99.90;;;;;;5075568;27;19933;-81
2021/12/27 15:04:00;;;;;;;;;;;-1.20;99.90;;;;;;5096781;28;19933;-80
2021/12/27 15:06:27;;;;;;;;;;;-1.20;99.90;;;;;;4996844;28;19927;-81
2021/12/27 15:08:54;;;;;;;;;;;-1.30;99.90;;;;;;4785503;29;19932;-81
2021/12/27 15:11:20;;;;;;;;;;;-1.30;99.90;;;;;;4565139;30;19936;-80
2021/12/27 15:18:52;;;;;;;;;;;-1.30;99.90;;;;;;5152157;27;19930;-79
2021/12/27 15:21:19;;;;;;;;;;;-1.40;99.90;;;;;;5109732;28;19924;-81
2021/12/27 15:23:47;;;;;;;;;;;-1.40;99.90;;;;;;5065041;28;19932;-81
2021/12/27 15:26:13;;;;;;;;;;;-1.40;99.90;;;;;;5062262;28;19939;-82
2021/12/27 15:28:40;;;;;;;;;;;-1.40;99.90;;;;;;4987924;28;19930;-81
2021/12/27 15:31:07;;;;;;;;;;;-1.40;99.90;;;;;;4755220;29;19933;-80
2021/12/27 15:33:33;;;;;;;;;;;-1.40;99.90;;;;;;4493291;31;19942;-80
2021/12/27 15:38:40;;;;;;;;;;;-1.40;99.90;;;;;;5147652;27;19926;-81
2021/12/27 15:41:07;;;;;;;;;;;-1.40;99.90;;;;;;5110811;27;19923;-82
2021/12/27 15:43:33;;;;;;;;;;;-1.40;99.90;;;;;;5105056;27;19938;-81
2021/12/27 15:46:01;;;;;;;;;;;-1.50;99.90;;;;;;5081000;28;19925;-80
2021/12/27 15:48:27;;;;;;;;;;;-1.40;99.90;;;;;;4996970;28;19925;-81
2021/12/27 15:50:56;;;;;;;;;;;-1.40;99.90;;;;;;4832334;28;19935;-81
2021/12/27 15:53:23;;;;;;;;;;;-1.40;99.90;;;;;;4474543;30;19945;-80
2021/12/27 16:00:54;;;;;;;;;;;-1.40;99.90;;;;;;5152013;27;19929;-82
2021/12/27 16:03:22;;;;;;;;;;;-1.40;99.90;;;;;;5092594;28;19927;-82
2021/12/27 16:05:48;;;;;;;;;;;-1.40;99.90;;;;;;5071340;28;19932;-82
2021/12/27 16:08:15;;;;;;;;;;;-1.40;99.90;;;;;;5056693;28;19940;-82
2021/12/27 16:10:42;;;;;;;;;;;-1.40;99.90;;;;;;4961309;28;19947;-81
2021/12/27 16:13:08;;;;;;;;;;;-1.40;99.90;;;;;;4775656;29;19931;-80
2021/12/27 16:15:35;;;;;;;;;;;-1.40;99.90;;;;;;4549242;30;19933;-80
2021/12/27 16:22:52;;;;;;;;;;;-1.40;99.90;;;;;;5139031;27;19930;-82
2021/12/27 16:25:19;;;;;;;;;;;-1.40;99.90;;;;;;5089348;28;19928;-80
2021/12/27 16:27:47;;;;;;;;;;;-1.40;99.90;;;;;;5091337;28;19935;-82
2021/12/27 16:30:15;;;;;;;;;;;-1.40;99.90;;;;;;5041640;28;19925;-83
2021/12/27 16:32:42;;;;;;;;;;;-1.40;99.90;;;;;;4920984;28;19936;-82
2021/12/27 16:35:09;;;;;;;;;;;-1.40;99.90;;;;;;4772988;29;19955;-81
2021/12/27 16:37:35;;;;;;;;;;;-1.50;99.90;;;;;;4519572;30;19937;-80
2021/12/27 16:45:08;;;;;;;;;;;-1.50;99.90;;;;;;5154354;27;19926;-80
2021/12/27 16:47:36;;;;;;;;;;;-1.50;99.90;;;;;;5093855;28;19928;-80
2021/12/27 16:50:02;;;;;;;;;;;-1.40;99.90;;;;;;5063555;28;19924;-80
2021/12/27 16:52:29;;;;;;;;;;;-1.40;99.90;;;;;;5006385;28;19934;-80
2021/12/27 16:54:56;;;;;;;;;;;-1.50;99.90;;;;;;4888679;29;20101;-83
2021/12/27 16:57:24;;;;;;;;;;;-1.60;99.90;;;;;;4770480;29;19935;-82
2021/12/27 16:59:50;;;;;;;;;;;-1.40;99.90;;;;;;4564048;30;19948;-82
2021/12/27 17:06:51;;;;;;;;;;;-1.50;99.90;;;;;;5152453;27;19930;-83
2021/12/27 17:09:18;;;;;;;;;;;-1.50;99.90;;;;;;5097611;28;19943;-81
2021/12/27 17:11:45;;;;;;;;;;;-1.50;99.90;;;;;;5044849;28;19933;-81
2021/12/27 17:14:11;;;;;;;;;;;-1.50;99.90;;;;;;5043195;28;19929;-82
2021/12/27 17:16:38;;;;;;;;;;;-1.50;99.90;;;;;;4930194;28;19929;-82
2021/12/27 17:19:05;;;;;;;;;;;-1.50;99.90;;;;;;4706265;29;19937;-82
2021/12/27 17:21:31;;;;;;;;;;;-1.50;99.90;;;;;;4453909;31;19949;-81
2021/12/27 17:29:05;;;;;;;;;;;-1.50;99.90;;;;;;5150425;27;19931;-81
2021/12/27 17:31:32;;;;;;;;;;;-1.50;99.90;;;;;;5097177;28;19924;-81
2021/12/27 17:33:59;;;;;;;;;;;-1.60;99.90;;;;;;5090612;28;19947;-80
2021/12/27 17:36:26;;;;;;;;;;;-1.50;99.90;;;;;;5049513;28;19932;-83
2021/12/27 17:38:53;;;;;;;;;;;-1.50;99.90;;;;;;4929076;28;19931;-80
2021/12/27 17:41:19;;;;;;;;;;;-1.60;99.90;;;;;;4770843;29;19939;-80
2021/12/27 17:43:46;;;;;;;;;;;-1.60;99.90;;;;;;4492891;31;19940;-81
2021/12/27 17:50:47;;;;;;;;;;;-1.50;99.90;;;;;;5146025;27;19929;-81
2021/12/27 17:53:13;;;;;;;;;;;-1.50;99.90;;;;;;5102110;28;19928;-82
2021/12/27 17:55:40;;;;;;;;;;;-1.50;99.90;;;;;;5066718;28;19932;-81
2021/12/27 17:58:07;;;;;;;;;;;-1.50;99.90;;;;;;5053906;28;19929;-82
2021/12/27 18:00:33;;;;;;;;;;;-1.50;99.90;;;;;;4985574;28;19928;-80
2021/12/27 18:03:00;;;;;;;;;;;-1.50;99.90;;;;;;4774945;29;19932;-81
2021/12/27 18:05:28;;;;;;;;;;;-1.50;99.90;;;;;;4580161;30;19942;-80
2021/12/27 18:12:55;;;;;;;;;;;-1.50;99.90;;;;;;5137299;27;19930;-81
2021/12/27 18:15:22;;;;;;;;;;;-1.50;99.90;;;;;;5096175;28;19923;-80
2021/12/27 18:17:49;;;;;;;;;;;-1.50;99.90;;;;;;5086550;28;19951;-79